Time;durP1;ratioP1;P1;durP2;ratioP2;P2;SDS_P1;SDS_P2;PMS_P1;PMS_P2;Temp;Humidity;BMP_temperature;BMP_pressure;BME280_temperature;BME280_humidity;BME280_pressure;Samples;Min_cycle;Max_cycle;Signal;HPM_P1;HPM_P2
2022/05/24 00:01:31;;;;;;;3.25;3.05;;;;;;;;;;5058093;28;20202;-84
2022/05/24 00:03:59;;;;;;;2.35;2.15;;;;;;;;;;5058186;28;20232;-84
2022/05/24 00:06:31;;;;;;;3.20;2.85;;;;;;;;;;5057880;28;20233;-84
2022/05/24 00:08:58;;;;;;;3.45;3.08;;;;;;;;;;5058210;28;20231;-85
2022/05/24 00:11:26;;;;;;;3.25;2.95;;;;;;;;;;5058077;28;20584;-85
2022/05/24 00:13:53;;;;;;;2.35;2.15;;;;;;;;;;5056897;28;20225;-85
2022/05/24 00:16:21;;;;;;;1.88;1.67;;;;;;;;;;5058110;28;20410;-85
2022/05/24 00:18:48;;;;;;;1.88;1.77;;;;;;;;;;5058504;28;20233;-84
2022/05/24 00:21:16;;;;;;;1.80;1.70;;;;;;;;;;5058004;28;20224;-85
2022/05/24 00:23:44;;;;;;;2.47;2.28;;;;;;;;;;5057640;28;20228;-84
2022/05/24 00:26:26;;;;;;;3.28;3.08;;;;;;;;;;5057785;28;20590;-85
2022/05/24 00:28:53;;;;;;;3.95;3.65;;;;;;;;;;5057949;28;20206;-84
2022/05/24 00:31:20;;;;;;;4.00;3.70;;;;;;;;;;5057668;28;20202;-84
2022/05/24 00:33:47;;;;;;;3.72;3.33;;;;;;;;;;5057331;28;20222;-84
2022/05/24 00:36:15;;;;;;;4.20;3.90;;;;;;;;;;5057592;28;20202;-84
2022/05/24 00:38:43;;;;;;;4.90;3.97;;;;;;;;;;5056750;28;20233;-84
2022/05/24 00:41:22;;;;;;;4.28;3.88;;;;;;;;;;5057834;28;20209;-83
2022/05/24 00:43:53;;;;;;;4.30;3.90;;;;;;;;;;5056731;28;20694;-84
2022/05/24 00:46:23;;;;;;;4.68;4.28;;;;;;;;;;5057599;28;20611;-84
2022/05/24 00:48:55;;;;;;;4.88;4.47;;;;;;;;;;5057741;28;20674;-84
2022/05/24 00:51:29;;;;;;;3.17;2.97;;;;;;;;;;5057195;28;20240;-84
2022/05/24 00:53:58;;;;;;;4.03;3.72;;;;;;;;;;5056788;28;20222;-83
2022/05/24 00:56:48;;;;;;;2.90;2.70;;;;;;;;;;5056119;28;20206;-83
2022/05/24 00:59:27;;;;;;;3.70;3.40;;;;;;;;;;5055903;28;20229;-83
2022/05/24 01:01:55;;;;;;;3.95;3.65;;;;;;;;;;5056355;28;20196;-84
2022/05/24 01:04:22;;;;;;;3.67;2.75;;;;;;;;;;5056573;28;20221;-83
2022/05/24 01:06:50;;;;;;;3.05;2.85;;;;;;;;;;5056375;28;20218;-83
2022/05/24 01:09:21;;;;;;;2.63;2.42;;;;;;;;;;5057179;28;20198;-83
2022/05/24 01:11:55;;;;;;;2.97;2.78;;;;;;;;;;5056354;28;20644;-84
2022/05/24 01:14:24;;;;;;;2.70;2.50;;;;;;;;;;5057009;28;20217;-83
2022/05/24 01:16:51;;;;;;;2.80;2.60;;;;;;;;;;5056773;28;20689;-84
2022/05/24 01:19:30;;;;;;;2.75;2.55;;;;;;;;;;5056708;28;20226;-84
2022/05/24 01:21:58;;;;;;;4.50;4.15;;;;;;;;;;5056256;28;20785;-83
2022/05/24 01:24:31;;;;;;;4.28;3.97;;;;;;;;;;5057158;28;20217;-83
2022/05/24 01:27:02;;;;;;;3.55;3.25;;;;;;;;;;5057077;28;20271;-83
2022/05/24 01:29:29;;;;;;;4.18;3.78;;;;;;;;;;5056362;28;20236;-83
2022/05/24 01:37:28;;;;;;;3.35;3.05;;;;;;;;;;5056934;28;20204;-83
2022/05/24 01:39:58;;;;;;;3.22;3.03;;;;;;;;;;5055834;28;20666;-83
2022/05/24 01:42:27;;;;;;;7.25;4.00;;;;;;;;;;5056527;28;20550;-84
2022/05/24 01:44:58;;;;;;;3.00;2.80;;;;;;;;;;5055880;28;20725;-83
2022/05/24 01:47:26;;;;;;;2.63;2.42;;;;;;;;;;5056031;28;20210;-83
2022/05/24 01:49:59;;;;;;;4.82;4.45;;;;;;;;;;5056365;28;20198;-83
2022/05/24 01:52:31;;;;;;;4.43;4.03;;;;;;;;;;5056186;28;20205;-83
2022/05/24 01:55:05;;;;;;;3.80;3.50;;;;;;;;;;5055755;28;20225;-84
2022/05/24 01:57:37;;;;;;;4.07;3.75;;;;;;;;;;5056123;28;20201;-84
2022/05/24 02:00:08;;;;;;;2.88;2.67;;;;;;;;;;5055874;28;20636;-83
2022/05/24 02:02:35;;;;;;;2.60;2.40;;;;;;;;;;5055431;28;20217;-84
2022/05/24 02:05:03;;;;;;;2.78;2.58;;;;;;;;;;5055692;28;20225;-84
2022/05/24 02:07:32;;;;;;;2.38;2.22;;;;;;;;;;5056254;28;20583;-85
2022/05/24 02:09:59;;;;;;;3.78;3.10;;;;;;;;;;5058159;28;20568;-84
2022/05/24 02:12:31;;;;;;;3.80;3.45;;;;;;;;;;5057618;28;20705;-84
2022/05/24 02:15:04;;;;;;;2.70;2.50;;;;;;;;;;5058332;28;20713;-84
2022/05/24 02:17:36;;;;;;;2.42;2.28;;;;;;;;;;5057612;28;20209;-84
2022/05/24 02:20:05;;;;;;;2.60;2.28;;;;;;;;;;5057463;28;20229;-84
2022/05/24 02:22:33;;;;;;;2.67;2.47;;;;;;;;;;5057628;28;20193;-84
2022/05/24 02:25:05;;;;;;;4.22;3.85;;;;;;;;;;5058058;28;20222;-84
2022/05/24 02:27:36;;;;;;;2.42;2.22;;;;;;;;;;5057781;28;20201;-84
2022/05/24 02:30:05;;;;;;;2.65;2.45;;;;;;;;;;5057658;28;20198;-83
2022/05/24 02:32:33;;;;;;;2.00;1.90;;;;;;;;;;5057058;28;20213;-83
2022/05/24 02:35:01;;;;;;;3.63;2.97;;;;;;;;;;5057681;28;20308;-83
2022/05/24 02:37:28;;;;;;;2.20;2.10;;;;;;;;;;5056986;28;20292;-83
2022/05/24 02:42:40;;;;;;;2.67;2.47;;;;;;;;;;5056770;28;20220;-84
2022/05/24 02:45:10;;;;;;;2.40;2.30;;;;;;;;;;5057354;28;20617;-83
2022/05/24 02:47:37;;;;;;;2.03;1.92;;;;;;;;;;5057290;28;20208;-83
2022/05/24 02:50:08;;;;;;;2.90;2.70;;;;;;;;;;5057650;28;20194;-83
2022/05/24 02:52:37;;;;;;;1.83;1.73;;;;;;;;;;5057016;28;20597;-84
2022/05/24 02:55:05;;;;;;;2.65;2.45;;;;;;;;;;5055572;28;20248;-85
2022/05/24 02:57:32;;;;;;;3.22;3.03;;;;;;;;;;5056460;28;20216;-84
2022/05/24 03:00:00;;;;;;;2.80;2.60;;;;;;;;;;5056622;28;20241;-84
2022/05/24 03:02:28;;;;;;;2.30;2.10;;;;;;;;;;5055843;28;20204;-84
2022/05/24 03:04:56;;;;;;;2.20;2.10;;;;;;;;;;5058548;22;20280;-83
2022/05/24 03:10:09;;;;;;;2.88;2.67;;;;;;;;;;5036125;28;20198;-82
2022/05/24 03:15:21;;;;;;;3.10;2.90;;;;;;;;;;5035683;28;20585;-83
2022/05/24 03:17:50;;;;;;;2.67;2.47;;;;;;;;;;5035449;28;20550;-84
2022/05/24 03:20:17;;;;;;;4.47;4.13;;;;;;;;;;5032938;28;20631;-83
2022/05/24 03:22:44;;;;;;;2.65;2.45;;;;;;;;;;5033446;28;20833;-83
2022/05/24 03:25:12;;;;;;;2.30;2.20;;;;;;;;;;5033206;28;20233;-83
2022/05/24 03:27:39;;;;;;;2.60;2.40;;;;;;;;;;5038222;28;20210;-83
2022/05/24 03:30:08;;;;;;;2.72;2.47;;;;;;;;;;5054748;28;20576;-83
2022/05/24 03:32:35;;;;;;;2.63;2.42;;;;;;;;;;5054868;28;20201;-83
2022/05/24 03:35:07;;;;;;;2.60;2.45;;;;;;;;;;5055362;28;20236;-83
2022/05/24 03:37:35;;;;;;;2.60;2.40;;;;;;;;;;5053698;28;20209;-83
2022/05/24 03:40:02;;;;;;;2.20;2.10;;;;;;;;;;5055116;28;20226;-83
2022/05/24 03:42:30;;;;;;;2.67;2.47;;;;;;;;;;5054892;28;20205;-83
2022/05/24 03:44:57;;;;;;;3.13;2.92;;;;;;;;;;5054913;28;20217;-83
2022/05/24 03:47:24;;;;;;;2.25;2.15;;;;;;;;;;5054697;28;20666;-83
2022/05/24 03:49:52;;;;;;;3.13;2.92;;;;;;;;;;5053859;28;20205;-83
2022/05/24 03:52:20;;;;;;;2.72;2.50;;;;;;;;;;5053203;28;20213;-84
2022/05/24 03:54:48;;;;;;;2.80;2.60;;;;;;;;;;5052522;28;20709;-83
2022/05/24 04:00:19;;;;;;;3.30;3.10;;;;;;;;;;4935437;29;20227;-83
2022/05/24 04:02:47;;;;;;;5.10;4.63;;;;;;;;;;4935051;29;20201;-82
2022/05/24 04:05:14;;;;;;;3.33;3.13;;;;;;;;;;4970168;28;20598;-84
2022/05/24 04:07:43;;;;;;;3.15;2.95;;;;;;;;;;5014849;28;20636;-83
2022/05/24 04:10:14;;;;;;;3.50;3.30;;;;;;;;;;5015636;28;20207;-83
2022/05/24 04:12:41;;;;;;;4.63;4.22;;;;;;;;;;5014918;28;20195;-83
2022/05/24 04:15:10;;;;;;;3.28;3.08;;;;;;;;;;5015609;28;20226;-83
2022/05/24 04:17:37;;;;;;;3.25;2.95;;;;;;;;;;5015054;28;20210;-83
2022/05/24 04:20:07;;;;;;;4.97;4.57;;;;;;;;;;5015916;28;20230;-83
2022/05/24 04:22:35;;;;;;;4.82;4.43;;;;;;;;;;5013956;28;20217;-83
2022/05/24 04:25:05;;;;;;;6.38;5.57;;;;;;;;;;5016841;28;20238;-84
2022/05/24 04:27:33;;;;;;;3.95;3.65;;;;;;;;;;5033901;28;20639;-83
2022/05/24 04:30:00;;;;;;;4.13;3.80;;;;;;;;;;5034158;28;20756;-82
2022/05/24 04:32:28;;;;;;;3.90;3.60;;;;;;;;;;5033662;28;20686;-82
2022/05/24 04:34:55;;;;;;;6.40;5.90;;;;;;;;;;5036380;28;20226;-82
2022/05/24 04:37:23;;;;;;;4.95;4.55;;;;;;;;;;5038184;28;20206;-83
2022/05/24 04:39:50;;;;;;;4.45;4.05;;;;;;;;;;5037947;28;20226;-83
2022/05/24 04:42:21;;;;;;;4.63;4.22;;;;;;;;;;5036835;28;20202;-83
2022/05/24 04:44:51;;;;;;;4.25;3.92;;;;;;;;;;5035613;28;20218;-84
2022/05/24 04:47:20;;;;;;;3.75;3.42;;;;;;;;;;5036423;28;20244;-83
2022/05/24 04:49:50;;;;;;;4.95;4.53;;;;;;;;;;5041041;28;20194;-84
2022/05/24 04:52:19;;;;;;;5.30;4.90;;;;;;;;;;5036080;28;20620;-88
2022/05/24 04:54:46;;;;;;;4.88;4.47;;;;;;;;;;5036232;28;20226;-84
2022/05/24 04:57:14;;;;;;;4.88;4.47;;;;;;;;;;5037727;28;20214;-84
2022/05/24 04:59:43;;;;;;;5.05;4.65;;;;;;;;;;5035803;28;20650;-84
2022/05/24 05:02:11;;;;;;;4.57;4.05;;;;;;;;;;5035228;28;20663;-86
2022/05/24 05:04:38;;;;;;;5.20;4.80;;;;;;;;;;5035542;28;20218;-82
2022/05/24 05:07:09;;;;;;;5.43;4.93;;;;;;;;;;5036016;28;20236;-82
2022/05/24 05:09:38;;;;;;;5.40;4.93;;;;;;;;;;5037767;28;20669;-83
2022/05/24 05:12:07;;;;;;;5.70;5.20;;;;;;;;;;5037533;28;20732;-84
2022/05/24 05:14:35;;;;;;;5.30;4.90;;;;;;;;;;5037680;28;20661;-83
2022/05/24 05:17:04;;;;;;;4.32;3.92;;;;;;;;;;5036624;28;20194;-83
2022/05/24 05:19:32;;;;;;;5.13;4.68;;;;;;;;;;5034962;28;20195;-84
2022/05/24 05:22:02;;;;;;;6.13;5.72;;;;;;;;;;5034604;28;20229;-86
2022/05/24 05:24:30;;;;;;;6.10;5.50;;;;;;;;;;5037915;28;20272;-85
2022/05/24 05:26:57;;;;;;;4.88;4.47;;;;;;;;;;5034730;28;20202;-87
2022/05/24 05:32:08;;;;;;;6.00;5.43;;;;;;;;;;5034814;28;20217;-84
2022/05/24 05:34:36;;;;;;;5.43;5.00;;;;;;;;;;5036140;28;20742;-82
2022/05/24 05:37:07;;;;;;;7.05;6.35;;;;;;;;;;5035572;28;20206;-82
2022/05/24 05:39:37;;;;;;;5.65;5.15;;;;;;;;;;5035634;28;20215;-82
2022/05/24 05:42:05;;;;;;;6.28;5.72;;;;;;;;;;5039601;28;20248;-82
2022/05/24 05:44:32;;;;;;;4.22;3.92;;;;;;;;;;5036006;28;20241;-84
2022/05/24 05:47:00;;;;;;;5.00;4.57;;;;;;;;;;5033764;28;20221;-83
2022/05/24 05:49:29;;;;;;;5.22;4.13;;;;;;;;;;5035063;28;20202;-83
2022/05/24 05:51:56;;;;;;;5.18;4.75;;;;;;;;;;5035143;28;20213;-82
2022/05/24 05:54:24;;;;;;;4.85;4.45;;;;;;;;;;5032827;28;20593;-83
2022/05/24 05:56:52;;;;;;;4.03;3.72;;;;;;;;;;5033987;28;20216;-83
2022/05/24 05:59:19;;;;;;;5.45;4.95;;;;;;;;;;5034795;28;20213;-83
2022/05/24 06:01:46;;;;;;;4.53;3.85;;;;;;;;;;5034084;28;20313;-83
2022/05/24 06:04:14;;;;;;;4.28;3.90;;;;;;;;;;5034031;28;20226;-85
2022/05/24 06:06:45;;;;;;;4.43;4.03;;;;;;;;;;5034269;28;20206;-84
2022/05/24 06:09:13;;;;;;;4.43;4.03;;;;;;;;;;5034020;28;20210;-84
2022/05/24 06:11:41;;;;;;;3.35;3.10;;;;;;;;;;5033631;28;20290;-84
2022/05/24 06:14:09;;;;;;;3.75;3.45;;;;;;;;;;5031051;28;20219;-84
2022/05/24 06:16:37;;;;;;;3.60;3.30;;;;;;;;;;5032720;28;20225;-84
2022/05/24 06:19:05;;;;;;;4.28;3.88;;;;;;;;;;5037322;28;20788;-85
2022/05/24 06:21:34;;;;;;;4.22;3.83;;;;;;;;;;5033150;28;20237;-85
2022/05/24 06:24:03;;;;;;;3.47;3.05;;;;;;;;;;5033520;28;20218;-84
2022/05/24 06:26:31;;;;;;;3.25;3.00;;;;;;;;;;5033936;28;20233;-85
2022/05/24 06:28:59;;;;;;;2.97;2.78;;;;;;;;;;5033551;28;20207;-84
2022/05/24 06:31:27;;;;;;;4.03;3.63;;;;;;;;;;5033507;28;20604;-84
2022/05/24 06:33:55;;;;;;;2.88;2.67;;;;;;;;;;5033070;28;20341;-85
2022/05/24 06:36:22;;;;;;;2.60;2.40;;;;;;;;;;5033159;28;20205;-84
2022/05/24 06:38:49;;;;;;;3.50;3.20;;;;;;;;;;5033050;28;20663;-85
2022/05/24 06:41:18;;;;;;;3.28;3.08;;;;;;;;;;5033022;28;20223;-84
2022/05/24 06:43:45;;;;;;;2.58;2.38;;;;;;;;;;5032758;28;20209;-86
2022/05/24 06:46:13;;;;;;;2.60;2.30;;;;;;;;;;5032837;28;20206;-85
2022/05/24 06:48:42;;;;;;;2.70;2.50;;;;;;;;;;5033153;28;20210;-85
2022/05/24 06:51:11;;;;;;;3.47;2.83;;;;;;;;;;5032993;28;20210;-85
2022/05/24 06:53:39;;;;;;;2.85;2.65;;;;;;;;;;5026346;28;20206;-85
2022/05/24 06:56:07;;;;;;;3.33;3.03;;;;;;;;;;5028369;28;20613;-86
2022/05/24 06:58:36;;;;;;;4.63;3.15;;;;;;;;;;5025829;28;20217;-85
2022/05/24 07:03:50;;;;;;;3.55;2.70;;;;;;;;;;5032253;28;20233;-85
2022/05/24 07:06:18;;;;;;;2.60;2.40;;;;;;;;;;5032903;28;20569;-84
2022/05/24 07:08:46;;;;;;;2.13;2.03;;;;;;;;;;5032947;28;20202;-84
2022/05/24 07:11:15;;;;;;;3.08;2.88;;;;;;;;;;5033342;28;20202;-84
2022/05/24 07:13:44;;;;;;;2.35;2.15;;;;;;;;;;5033137;28;20210;-84
2022/05/24 07:16:12;;;;;;;2.28;2.08;;;;;;;;;;5033359;28;20209;-84
2022/05/24 07:18:39;;;;;;;1.80;1.70;;;;;;;;;;5033656;28;20206;-84
2022/05/24 07:21:07;;;;;;;1.65;1.55;;;;;;;;;;5033419;28;20642;-83
2022/05/24 07:23:37;;;;;;;1.40;1.35;;;;;;;;;;5032459;28;20260;-83
2022/05/24 07:26:15;;;;;;;2.33;2.20;;;;;;;;;;5033455;28;20214;-83
2022/05/24 07:28:44;;;;;;;2.30;2.10;;;;;;;;;;5032364;28;20209;-83
2022/05/24 07:31:12;;;;;;;1.65;1.55;;;;;;;;;;5032247;28;20577;-84
2022/05/24 07:33:40;;;;;;;1.65;1.55;;;;;;;;;;5032882;28;20210;-84
2022/05/24 07:36:09;;;;;;;3.00;2.15;;;;;;;;;;5033415;28;20213;-84
2022/05/24 07:38:37;;;;;;;1.55;1.45;;;;;;;;;;5032712;28;20221;-84
2022/05/24 07:46:36;;;;;;;1.77;1.10;;;;;;;;;;5032496;28;20321;-85
2022/05/24 07:49:05;;;;;;;1.58;1.48;;;;;;;;;;5032378;28;20207;-84
2022/05/24 07:51:32;;;;;;;0.95;0.95;;;;;;;;;;5031714;28;20566;-84
2022/05/24 07:53:59;;;;;;;2.03;1.00;;;;;;;;;;5031839;28;20241;-84
2022/05/24 07:56:27;;;;;;;1.83;1.33;;;;;;;;;;5028006;28;20205;-84
2022/05/24 07:58:56;;;;;;;0.80;0.77;;;;;;;;;;5032250;28;20217;-84
2022/05/24 08:01:23;;;;;;;2.55;1.65;;;;;;;;;;5032134;28;20663;-83
2022/05/24 08:03:51;;;;;;;2.03;1.85;;;;;;;;;;5031764;28;20222;-84
2022/05/24 08:06:19;;;;;;;1.00;1.00;;;;;;;;;;5032378;28;20210;-84
2022/05/24 08:08:46;;;;;;;2.35;0.98;;;;;;;;;;5033028;28;20210;-84
2022/05/24 08:11:13;;;;;;;0.82;0.80;;;;;;;;;;5036348;28;20235;-83
2022/05/24 08:13:40;;;;;;;1.05;1.00;;;;;;;;;;5035001;28;20673;-84
2022/05/24 08:16:09;;;;;;;1.33;1.13;;;;;;;;;;5036025;28;20268;-85
2022/05/24 08:18:36;;;;;;;1.67;1.45;;;;;;;;;;5036556;28;20651;-84
2022/05/24 08:21:04;;;;;;;1.00;1.00;;;;;;;;;;5036044;28;20206;-83
2022/05/24 08:23:32;;;;;;;1.08;1.00;;;;;;;;;;5034898;28;20226;-84
2022/05/24 08:25:59;;;;;;;1.50;1.17;;;;;;;;;;5024098;28;20293;-84
2022/05/24 08:28:28;;;;;;;1.63;1.05;;;;;;;;;;5035727;28;20206;-84
2022/05/24 08:30:55;;;;;;;0.90;0.90;;;;;;;;;;5035758;28;20202;-84
2022/05/24 08:33:25;;;;;;;1.33;1.23;;;;;;;;;;5035072;28;20203;-84
2022/05/24 08:35:53;;;;;;;0.90;0.90;;;;;;;;;;5036820;28;20222;-83
2022/05/24 08:38:21;;;;;;;1.00;0.90;;;;;;;;;;5036020;28;20598;-83
2022/05/24 08:40:50;;;;;;;1.30;1.20;;;;;;;;;;5036492;28;20202;-84
2022/05/24 08:43:48;;;;;;;2.42;1.00;;;;;;;;;;5036092;28;20572;-83
2022/05/24 08:49:08;;;;;;;1.00;1.00;;;;;;;;;;5036866;28;20263;-84
2022/05/24 08:51:39;;;;;;;0.80;0.80;;;;;;;;;;5036617;28;20285;-83
2022/05/24 08:54:10;;;;;;;1.05;0.73;;;;;;;;;;5036481;28;20715;-84
2022/05/24 08:56:44;;;;;;;1.30;0.88;;;;;;;;;;5037521;28;20202;-85
2022/05/24 08:59:19;;;;;;;0.80;0.73;;;;;;;;;;5037305;28;20205;-84
2022/05/24 09:01:47;;;;;;;0.73;0.73;;;;;;;;;;5029801;28;20591;-84
2022/05/24 09:04:17;;;;;;;0.60;0.60;;;;;;;;;;5052721;22;20220;-84
2022/05/24 09:06:50;;;;;;;1.38;1.25;;;;;;;;;;5059975;28;20201;-84
2022/05/24 09:09:50;;;;;;;1.38;1.00;;;;;;;;;;5059238;28;20259;-85
2022/05/24 09:12:46;;;;;;;1.30;1.20;;;;;;;;;;5058015;28;20229;-85
2022/05/24 09:15:23;;;;;;;2.50;1.10;;;;;;;;;;5059058;28;20229;-84
2022/05/24 09:18:03;;;;;;;1.02;0.90;;;;;;;;;;5059019;28;20221;-85
2022/05/24 09:20:38;;;;;;;1.17;1.05;;;;;;;;;;5051069;28;20208;-85
2022/05/24 09:23:10;;;;;;;0.88;0.88;;;;;;;;;;5058155;28;20221;-84
2022/05/24 09:25:37;;;;;;;0.80;0.80;;;;;;;;;;5058261;28;20257;-85
2022/05/24 09:28:05;;;;;;;1.15;0.88;;;;;;;;;;5058270;28;20193;-85
2022/05/24 09:30:41;;;;;;;1.60;1.08;;;;;;;;;;5058182;28;20201;-86
2022/05/24 09:33:22;;;;;;;0.70;0.70;;;;;;;;;;5057960;28;20209;-84
2022/05/24 09:35:55;;;;;;;1.00;1.00;;;;;;;;;;5059426;28;20237;-84
2022/05/24 09:38:22;;;;;;;1.40;1.30;;;;;;;;;;5058595;28;20630;-85
2022/05/24 09:40:56;;;;;;;0.85;0.85;;;;;;;;;;5058581;28;20205;-85
2022/05/24 09:43:29;;;;;;;0.77;0.77;;;;;;;;;;5057869;28;20233;-85
2022/05/24 09:46:01;;;;;;;0.60;0.60;;;;;;;;;;5052246;28;20257;-85
2022/05/24 09:48:32;;;;;;;0.93;0.90;;;;;;;;;;5059241;28;20202;-85
2022/05/24 09:51:03;;;;;;;1.20;1.10;;;;;;;;;;5059566;28;20213;-86
2022/05/24 09:53:33;;;;;;;0.80;0.80;;;;;;;;;;5058780;28;20227;-85
2022/05/24 09:56:03;;;;;;;0.70;0.70;;;;;;;;;;5058863;28;20222;-84
2022/05/24 09:58:35;;;;;;;0.85;0.85;;;;;;;;;;5058054;28;20193;-84
2022/05/24 10:01:07;;;;;;;1.00;1.00;;;;;;;;;;5057725;28;20255;-83
2022/05/24 10:03:38;;;;;;;1.10;0.85;;;;;;;;;;5057190;28;20233;-84
2022/05/24 10:06:20;;;;;;;0.82;0.80;;;;;;;;;;5057467;28;20261;-85
2022/05/24 10:08:51;;;;;;;1.95;1.05;;;;;;;;;;5057774;28;20202;-84
2022/05/24 10:11:29;;;;;;;0.70;0.70;;;;;;;;;;5057562;28;20278;-84
2022/05/24 10:14:23;;;;;;;1.13;0.80;;;;;;;;;;5050646;28;20207;-84
2022/05/24 10:16:56;;;;;;;0.70;0.70;;;;;;;;;;5057448;28;20571;-83
2022/05/24 10:19:47;;;;;;;0.60;0.60;;;;;;;;;;5056840;28;20212;-85
2022/05/24 10:22:34;;;;;;;0.60;0.60;;;;;;;;;;5044216;28;20255;-85
2022/05/24 10:25:11;;;;;;;0.80;0.80;;;;;;;;;;5056679;28;20236;-87
2022/05/24 10:27:53;;;;;;;0.57;0.57;;;;;;;;;;5056438;28;20208;-86
2022/05/24 10:30:27;;;;;;;0.77;0.77;;;;;;;;;;5050833;28;20205;-85
2022/05/24 10:39:04;;;;;;;0.50;0.50;;;;;;;;;;5043168;28;20260;-84
2022/05/24 10:41:40;;;;;;;0.50;0.50;;;;;;;;;;5047140;28;20293;-86
2022/05/24 10:44:13;;;;;;;0.50;0.50;;;;;;;;;;5056110;28;20218;-85
2022/05/24 10:46:46;;;;;;;0.57;0.57;;;;;;;;;;5042272;28;20202;-85
2022/05/24 10:49:25;;;;;;;0.55;0.55;;;;;;;;;;5055594;28;20230;-86
2022/05/24 10:51:56;;;;;;;0.75;0.75;;;;;;;;;;5056404;28;20632;-86
2022/05/24 10:54:36;;;;;;;0.70;0.70;;;;;;;;;;5055790;28;20584;-87
2022/05/24 10:57:07;;;;;;;1.70;1.00;;;;;;;;;;5057764;28;20665;-85
2022/05/24 10:59:52;;;;;;;0.75;0.75;;;;;;;;;;5056680;28;20202;-86
2022/05/24 11:02:29;;;;;;;0.68;0.68;;;;;;;;;;5055830;28;20185;-85
2022/05/24 11:05:03;;;;;;;0.60;0.60;;;;;;;;;;5055196;28;20283;-86
2022/05/24 11:07:34;;;;;;;0.70;0.70;;;;;;;;;;5055754;28;20217;-84
2022/05/24 11:10:15;;;;;;;0.50;0.50;;;;;;;;;;5056024;28;20209;-84
2022/05/24 11:12:47;;;;;;;0.70;0.70;;;;;;;;;;5055187;28;20288;-85
2022/05/24 11:15:21;;;;;;;0.60;0.60;;;;;;;;;;5055930;28;20343;-85
2022/05/24 11:17:49;;;;;;;0.65;0.63;;;;;;;;;;5055638;28;20194;-86
2022/05/24 11:20:24;;;;;;;0.70;0.70;;;;;;;;;;5055458;28;20662;-84
2022/05/24 11:23:06;;;;;;;0.77;0.77;;;;;;;;;;5055623;28;20227;-84
2022/05/24 11:25:40;;;;;;;0.70;0.70;;;;;;;;;;5056788;28;20590;-86
2022/05/24 11:28:23;;;;;;;1.10;1.05;;;;;;;;;;5056044;28;20206;-86
2022/05/24 11:30:51;;;;;;;0.60;0.60;;;;;;;;;;5056187;28;20208;-85
2022/05/24 11:33:34;;;;;;;0.60;0.60;;;;;;;;;;5056740;28;20666;-86
2022/05/24 11:36:28;;;;;;;0.88;0.80;;;;;;;;;;5043470;28;20234;-85
2022/05/24 11:38:55;;;;;;;0.70;0.70;;;;;;;;;;5056304;28;20621;-85
2022/05/24 11:41:32;;;;;;;0.68;0.68;;;;;;;;;;5056356;28;20210;-85
2022/05/24 11:44:07;;;;;;;0.60;0.60;;;;;;;;;;5055038;28;20304;-86
2022/05/24 11:46:46;;;;;;;0.88;0.88;;;;;;;;;;5036885;28;20205;-86
2022/05/24 11:50:06;;;;;;;1.20;0.73;;;;;;;;;;5036381;28;20293;-85
2022/05/24 11:53:05;;;;;;;0.57;0.57;;;;;;;;;;4974896;28;20215;-85
2022/05/24 11:55:51;;;;;;;0.95;0.80;;;;;;;;;;4999456;28;20226;-87
2022/05/24 11:58:52;;;;;;;0.70;0.68;;;;;;;;;;5061518;28;20269;-85
2022/05/24 12:01:43;;;;;;;0.85;0.80;;;;;;;;;;5049385;28;20208;-85
2022/05/24 12:10:46;;;;;;;0.57;0.57;;;;;;;;;;5031612;28;20713;-86
2022/05/24 12:13:54;;;;;;;0.57;0.57;;;;;;;;;;5055664;28;20209;-85
2022/05/24 12:16:39;;;;;;;0.50;0.50;;;;;;;;;;5055303;28;20228;-85
2022/05/24 12:19:10;;;;;;;1.25;1.15;;;;;;;;;;5054626;28;20599;-85
2022/05/24 12:22:02;;;;;;;0.82;0.50;;;;;;;;;;5056420;28;20198;-85
2022/05/24 12:24:54;;;;;;;0.88;0.60;;;;;;;;;;5055977;28;20686;-85
2022/05/24 12:27:56;;;;;;;1.55;0.60;;;;;;;;;;5055841;28;20208;-86
2022/05/24 12:30:46;;;;;;;0.30;0.30;;;;;;;;;;5035494;28;20229;-85
2022/05/24 12:33:35;;;;;;;2.45;1.15;;;;;;;;;;5035748;28;20187;-83
2022/05/24 12:36:38;;;;;;;0.60;0.60;;;;;;;;;;5037343;28;20729;-86
2022/05/24 12:39:14;;;;;;;1.83;0.75;;;;;;;;;;5048280;28;20201;-84
2022/05/24 12:41:44;;;;;;;1.60;0.70;;;;;;;;;;5055408;28;20218;-84
2022/05/24 12:44:20;;;;;;;0.50;0.50;;;;;;;;;;5054694;28;20207;-86
2022/05/24 12:46:52;;;;;;;0.70;0.70;;;;;;;;;;5055875;28;20209;-85
2022/05/24 12:49:22;;;;;;;0.60;0.50;;;;;;;;;;5055173;28;20688;-86
2022/05/24 12:51:53;;;;;;;1.23;0.60;;;;;;;;;;5055344;28;20271;-85
2022/05/24 12:54:30;;;;;;;0.60;0.60;;;;;;;;;;5055188;28;20258;-84
2022/05/24 12:57:06;;;;;;;0.55;0.55;;;;;;;;;;5058500;28;20427;-84
2022/05/24 12:59:40;;;;;;;0.88;0.60;;;;;;;;;;5052178;28;20213;-85
2022/05/24 13:02:33;;;;;;;0.60;0.60;;;;;;;;;;5052582;28;20567;-86
2022/05/24 13:05:09;;;;;;;0.45;0.45;;;;;;;;;;5058355;28;20236;-84
2022/05/24 13:07:42;;;;;;;1.00;0.55;;;;;;;;;;5059084;28;20304;-85
2022/05/24 13:10:25;;;;;;;1.38;1.13;;;;;;;;;;5058782;28;20212;-85
2022/05/24 13:12:57;;;;;;;0.70;0.70;;;;;;;;;;5053957;28;20204;-85
2022/05/24 13:15:30;;;;;;;1.17;1.08;;;;;;;;;;5058804;28;20229;-84
2022/05/24 13:18:02;;;;;;;0.50;0.50;;;;;;;;;;5059714;28;20277;-84
2022/05/24 13:20:36;;;;;;;0.60;0.60;;;;;;;;;;5058312;28;20288;-84
2022/05/24 13:23:17;;;;;;;0.98;0.60;;;;;;;;;;5058655;28;20205;-84
2022/05/24 13:25:51;;;;;;;1.98;0.60;;;;;;;;;;5058090;28;20247;-85
2022/05/24 13:28:39;;;;;;;0.60;0.60;;;;;;;;;;5051657;28;20206;-84
2022/05/24 13:33:55;;;;;;;0.60;0.60;;;;;;;;;;5058156;28;20205;-85
2022/05/24 13:36:26;;;;;;;0.30;0.30;;;;;;;;;;5057949;28;20201;-86
2022/05/24 13:39:14;;;;;;;0.43;0.43;;;;;;;;;;5057366;28;20210;-85
2022/05/24 13:41:45;;;;;;;0.65;0.60;;;;;;;;;;5057496;28;20566;-86
2022/05/24 13:44:30;;;;;;;0.50;0.50;;;;;;;;;;5057843;28;20693;-86
2022/05/24 13:47:02;;;;;;;0.38;0.38;;;;;;;;;;5056008;28;20209;-85
2022/05/24 13:49:40;;;;;;;0.57;0.57;;;;;;;;;;5057081;28;20209;-85
2022/05/24 13:52:21;;;;;;;0.70;0.43;;;;;;;;;;5051058;28;20662;-84
2022/05/24 13:54:50;;;;;;;0.50;0.50;;;;;;;;;;5056747;28;20232;-84
2022/05/24 13:57:27;;;;;;;0.40;0.40;;;;;;;;;;5056967;28;20685;-84
2022/05/24 14:00:05;;;;;;;0.52;0.47;;;;;;;;;;5056855;28;20201;-85
2022/05/24 14:02:32;;;;;;;0.82;0.82;;;;;;;;;;5057110;28;20209;-86
2022/05/24 14:05:00;;;;;;;0.55;0.55;;;;;;;;;;5056332;28;20233;-84
2022/05/24 14:07:28;;;;;;;0.88;0.68;;;;;;;;;;5056940;28;20235;-84
2022/05/24 14:09:56;;;;;;;0.65;0.40;;;;;;;;;;5057887;28;20606;-84
2022/05/24 14:12:23;;;;;;;0.45;0.45;;;;;;;;;;5056388;28;20213;-85
2022/05/24 14:14:51;;;;;;;0.60;0.60;;;;;;;;;;5057144;28;20604;-85
2022/05/24 14:17:19;;;;;;;2.47;0.80;;;;;;;;;;5056722;28;20236;-85
2022/05/24 14:19:47;;;;;;;0.50;0.50;;;;;;;;;;5056811;28;20208;-85
2022/05/24 14:22:14;;;;;;;0.70;0.70;;;;;;;;;;5056929;28;20213;-84
2022/05/24 14:24:41;;;;;;;0.50;0.50;;;;;;;;;;5056931;28;20686;-86
2022/05/24 14:27:12;;;;;;;0.63;0.63;;;;;;;;;;5056364;28;20747;-84
2022/05/24 14:29:40;;;;;;;0.70;0.70;;;;;;;;;;5057091;28;20230;-85
2022/05/24 14:32:08;;;;;;;1.02;0.40;;;;;;;;;;5056961;28;20229;-84
2022/05/24 14:34:36;;;;;;;0.70;0.70;;;;;;;;;;5056870;28;20226;-85
2022/05/24 14:37:06;;;;;;;0.70;0.70;;;;;;;;;;5056244;28;20212;-84
2022/05/24 14:39:34;;;;;;;0.80;0.77;;;;;;;;;;5056361;28;20300;-85
2022/05/24 14:42:01;;;;;;;0.73;0.73;;;;;;;;;;5052784;28;20202;-85
2022/05/24 14:44:32;;;;;;;0.70;0.70;;;;;;;;;;5056085;28;20605;-85
2022/05/24 14:47:01;;;;;;;1.45;0.60;;;;;;;;;;5056758;28;20230;-84
2022/05/24 14:49:28;;;;;;;0.70;0.70;;;;;;;;;;5056485;28;20324;-85
2022/05/24 14:52:00;;;;;;;1.17;0.70;;;;;;;;;;5057190;28;20682;-84
2022/05/24 14:54:28;;;;;;;0.68;0.60;;;;;;;;;;5050884;28;20229;-85
2022/05/24 14:56:56;;;;;;;1.00;0.70;;;;;;;;;;5059728;28;20202;-85
2022/05/24 14:59:26;;;;;;;0.50;0.50;;;;;;;;;;5056797;28;20205;-84
2022/05/24 15:01:53;;;;;;;0.70;0.70;;;;;;;;;;5055936;28;20264;-84
2022/05/24 15:15:20;;;;;;;0.40;0.40;;;;;;;;;;5045815;28;20226;-83
2022/05/24 15:15:23;;;;;;;0.45;0.45;;;;;;;;;;5043070;28;20217;-83
2022/05/24 15:17:52;;;;;;;0.82;0.80;;;;;;;;;;5041549;28;20377;-83
2022/05/24 15:20:21;;;;;;;0.47;0.47;;;;;;;;;;5041778;22;20231;-83
2022/05/24 15:22:57;;;;;;;0.80;0.50;;;;;;;;;;5019256;28;20199;-83
2022/05/24 15:25:30;;;;;;;0.68;0.60;;;;;;;;;;5019587;28;20690;-83
2022/05/24 15:27:58;;;;;;;0.50;0.50;;;;;;;;;;5019778;28;20193;-83
2022/05/24 15:30:27;;;;;;;0.40;0.40;;;;;;;;;;5018670;28;20206;-83
2022/05/24 15:32:55;;;;;;;0.60;0.60;;;;;;;;;;5019790;28;20210;-83
2022/05/24 15:35:22;;;;;;;0.60;0.60;;;;;;;;;;5018939;28;20234;-83
2022/05/24 15:37:49;;;;;;;0.52;0.52;;;;;;;;;;5018889;28;20202;-83
2022/05/24 15:40:17;;;;;;;1.55;0.60;;;;;;;;;;5019487;28;20198;-83
2022/05/24 15:42:46;;;;;;;0.30;0.30;;;;;;;;;;5020300;28;20545;-83
2022/05/24 15:45:15;;;;;;;0.30;0.30;;;;;;;;;;5019940;28;20226;-83
2022/05/24 15:47:42;;;;;;;0.50;0.50;;;;;;;;;;5019549;28;20230;-83
2022/05/24 15:50:11;;;;;;;0.47;0.47;;;;;;;;;;5019987;28;20660;-83
2022/05/24 15:52:38;;;;;;;0.73;0.50;;;;;;;;;;5019752;28;20205;-83
2022/05/24 15:55:09;;;;;;;0.40;0.40;;;;;;;;;;5019794;28;20223;-82
2022/05/24 15:57:37;;;;;;;0.60;0.60;;;;;;;;;;5022660;28;20199;-84
2022/05/24 16:00:11;;;;;;;0.40;0.40;;;;;;;;;;5018969;28;20213;-83
2022/05/24 16:02:39;;;;;;;0.47;0.47;;;;;;;;;;5017398;28;20194;-85
2022/05/24 16:10:38;;;;;;;0.52;0.52;;;;;;;;;;5017617;28;20482;-82